createdAt,value
2018-09-27T00:00:41.471Z,1025.78
2018-09-27T00:01:41.473Z,1025.76
2018-09-27T00:02:41.449Z,1025.74
2018-09-27T00:03:41.501Z,1025.68
2018-09-27T00:04:41.429Z,1025.66
2018-09-27T00:05:41.574Z,1025.65
2018-09-27T00:06:41.480Z,1025.66
2018-09-27T00:07:41.395Z,1025.64
2018-09-27T00:08:41.426Z,1025.68
2018-09-27T00:09:41.417Z,1025.71
2018-09-27T00:10:41.385Z,1025.69
2018-09-27T00:11:41.365Z,1025.62
2018-09-27T00:12:41.352Z,1025.61
2018-09-27T00:13:41.368Z,1025.58
2018-09-27T00:14:41.319Z,1025.58
2018-09-27T00:15:41.330Z,1025.63
2018-09-27T00:16:41.313Z,1025.67
2018-09-27T00:17:41.318Z,1025.67
2018-09-27T00:18:41.303Z,1025.68
2018-09-27T00:19:41.388Z,1025.64
2018-09-27T00:20:41.255Z,1025.69
2018-09-27T00:21:41.241Z,1025.66
2018-09-27T00:22:41.231Z,1025.59
2018-09-27T00:23:41.308Z,1025.61
2018-09-27T00:24:41.253Z,1025.67
2018-09-27T00:25:41.214Z,1025.71
2018-09-27T00:26:41.188Z,1025.74
2018-09-27T00:27:41.222Z,1025.72
2018-09-27T00:28:41.183Z,1025.68
2018-09-27T00:29:41.203Z,1025.66
2018-09-27T00:30:41.153Z,1025.63
2018-09-27T00:31:41.132Z,1025.64
2018-09-27T00:32:41.130Z,1025.61
2018-09-27T00:33:41.114Z,1025.61
2018-09-27T00:34:41.163Z,1025.69
2018-09-27T00:35:41.117Z,1025.64
2018-09-27T00:36:41.132Z,1025.62
2018-09-27T00:37:41.088Z,1025.61
2018-09-27T00:38:41.057Z,1025.58
2018-09-27T00:39:41.109Z,1025.55
2018-09-27T00:40:41.035Z,1025.59
2018-09-27T00:41:41.027Z,1025.59
2018-09-27T00:42:41.014Z,1025.61
2018-09-27T00:43:41.048Z,1025.57
2018-09-27T00:44:40.996Z,1025.53
2018-09-27T00:45:41.022Z,1025.54
2018-09-27T00:46:41.015Z,1025.47
2018-09-27T00:47:41.018Z,1025.47
2018-09-27T00:48:40.986Z,1025.47
2018-09-27T00:49:41.041Z,1025.47
2018-09-27T00:50:41.008Z,1025.47
2018-09-27T00:51:40.917Z,1025.47
2018-09-27T00:52:40.903Z,1025.51
2018-09-27T00:53:40.893Z,1025.51
2018-09-27T00:54:40.884Z,1025.53
2018-09-27T00:55:40.901Z,1025.52
2018-09-27T00:56:40.923Z,1025.51
2018-09-27T00:57:40.860Z,1025.46
2018-09-27T00:58:40.840Z,1025.44
2018-09-27T00:59:40.831Z,1025.43
2018-09-27T01:00:40.860Z,1025.43
2018-09-27T01:01:40.818Z,1025.40
2018-09-27T01:02:40.862Z,1025.37
2018-09-27T01:03:40.861Z,1025.31
2018-09-27T01:04:40.786Z,1025.36
2018-09-27T01:05:40.765Z,1025.28
2018-09-27T01:06:40.780Z,1025.27
2018-09-27T01:07:40.746Z,1025.31
2018-09-27T01:08:40.745Z,1025.32
2018-09-27T01:09:40.789Z,1025.32
2018-09-27T01:10:40.726Z,1025.35
2018-09-27T01:11:40.741Z,1025.33
2018-09-27T01:12:40.690Z,1025.33
2018-09-27T01:13:40.677Z,1025.32
2018-09-27T01:14:40.690Z,1025.32
2018-09-27T01:15:40.655Z,1025.25
2018-09-27T01:16:40.689Z,1025.28
2018-09-27T01:17:40.633Z,1025.30
2018-09-27T01:18:40.634Z,1025.24
2018-09-27T01:19:40.662Z,1025.25
2018-09-27T01:20:40.615Z,1025.22
2018-09-27T01:21:40.589Z,1025.21
2018-09-27T01:22:40.754Z,1025.16
2018-09-27T01:23:40.571Z,1025.13
2018-09-27T01:24:40.571Z,1025.12
2018-09-27T01:25:40.550Z,1025.14
2018-09-27T01:26:40.568Z,1025.14
2018-09-27T01:27:40.568Z,1025.15
2018-09-27T01:28:40.543Z,1025.18
2018-09-27T01:29:40.506Z,1025.16
2018-09-27T01:30:40.498Z,1025.18
2018-09-27T01:31:40.529Z,1025.14
2018-09-27T01:32:40.519Z,1025.16
2018-09-27T01:33:40.475Z,1025.15
2018-09-27T01:34:40.448Z,1025.19
2018-09-27T01:35:40.543Z,1025.19
2018-09-27T01:36:40.434Z,1025.17
2018-09-27T01:37:40.455Z,1025.16
2018-09-27T01:38:40.406Z,1025.15
2018-09-27T01:39:40.399Z,1025.16
2018-09-27T01:40:40.418Z,1025.15
2018-09-27T01:41:40.395Z,1025.14
2018-09-27T01:42:40.370Z,1025.16
2018-09-27T01:43:40.462Z,1025.14
2018-09-27T01:44:40.366Z,1025.14
2018-09-27T01:45:40.345Z,1025.09
2018-09-27T01:46:40.328Z,1025.11
2018-09-27T01:47:40.309Z,1025.09
2018-09-27T01:48:40.323Z,1025.05
2018-09-27T01:49:40.307Z,1025.07
2018-09-27T01:50:40.295Z,1025.07
2018-09-27T01:51:40.271Z,1025.07
2018-09-27T01:52:40.262Z,1025.11
2018-09-27T01:53:40.274Z,1025.09
2018-09-27T01:54:40.245Z,1025.03
2018-09-27T01:55:40.234Z,1025.03
2018-09-27T01:56:40.233Z,1025.04
2018-09-27T01:57:40.202Z,1024.97
2018-09-27T01:58:40.266Z,1025.01
2018-09-27T01:59:40.206Z,1024.96
2018-09-27T02:00:40.198Z,1025.02
2018-09-27T02:01:40.172Z,1025.02
2018-09-27T02:02:40.157Z,1025.04
2018-09-27T02:03:40.137Z,1024.99
2018-09-27T02:04:40.161Z,1024.96
2018-09-27T02:05:40.157Z,1024.93
2018-09-27T02:06:40.101Z,1024.90
2018-09-27T02:07:40.110Z,1024.91
2018-09-27T02:08:40.083Z,1024.93
2018-09-27T02:09:40.147Z,1024.95
2018-09-27T02:10:40.084Z,1024.95
2018-09-27T02:11:40.066Z,1024.93
2018-09-27T02:12:40.036Z,1025.01
2018-09-27T02:13:40.034Z,1024.94
2018-09-27T02:14:40.058Z,1024.86
2018-09-27T02:15:40.012Z,1024.90
2018-09-27T02:16:39.995Z,1024.90
2018-09-27T02:17:39.990Z,1024.87
2018-09-27T02:18:39.971Z,1024.85
2018-09-27T02:19:40.020Z,1024.92
2018-09-27T02:20:39.993Z,1024.83
2018-09-27T02:21:39.944Z,1024.86
2018-09-27T02:22:39.933Z,1024.85
2018-09-27T02:23:39.975Z,1024.82
2018-09-27T02:24:40.005Z,1024.81
2018-09-27T02:25:39.941Z,1024.84
2018-09-27T02:26:39.891Z,1024.89
2018-09-27T02:27:39.879Z,1024.91
2018-09-27T02:28:39.887Z,1024.92
2018-09-27T02:29:39.859Z,1024.92
2018-09-27T02:30:39.905Z,1024.92
2018-09-27T02:31:39.844Z,1024.91
2018-09-27T02:32:39.822Z,1024.94
2018-09-27T02:33:39.831Z,1024.92
2018-09-27T02:34:39.814Z,1024.89
2018-09-27T02:35:39.838Z,1024.90
2018-09-27T02:36:39.780Z,1024.89
2018-09-27T02:37:39.768Z,1024.91
2018-09-27T02:38:39.764Z,1024.95
2018-09-27T02:39:39.785Z,1024.94
2018-09-27T02:40:39.733Z,1024.89
2018-09-27T02:41:39.754Z,1024.91
2018-09-27T02:42:39.792Z,1024.86
2018-09-27T02:43:39.717Z,1024.88
2018-09-27T02:44:39.694Z,1024.84
2018-09-27T02:45:39.679Z,1024.85
2018-09-27T02:46:39.772Z,1024.85
2018-09-27T02:47:39.673Z,1024.83
2018-09-27T02:48:39.659Z,1024.81
2018-09-27T02:49:39.657Z,1024.85
2018-09-27T02:50:39.642Z,1024.83
2018-09-27T02:51:39.669Z,1024.83
2018-09-27T02:52:39.622Z,1024.79
2018-09-27T02:53:39.591Z,1024.80
2018-09-27T02:54:39.582Z,1024.76
2018-09-27T02:55:39.571Z,1024.74
2018-09-27T02:56:39.674Z,1024.75
2018-09-27T02:57:39.559Z,1024.73
2018-09-27T02:58:39.544Z,1024.78
2018-09-27T02:59:39.528Z,1024.73
2018-09-27T03:00:39.530Z,1024.75
2018-09-27T03:01:39.510Z,1024.71
2018-09-27T03:02:39.546Z,1024.70
2018-09-27T03:03:39.487Z,1024.71
2018-09-27T03:04:39.473Z,1024.68
2018-09-27T03:05:39.466Z,1024.72
2018-09-27T03:06:39.455Z,1024.68
2018-09-27T03:07:39.490Z,1024.69
2018-09-27T03:08:39.429Z,1024.66
2018-09-27T03:09:39.426Z,1024.61
2018-09-27T03:10:39.464Z,1024.61
2018-09-27T03:11:39.398Z,1024.62
2018-09-27T03:12:39.456Z,1024.62
2018-09-27T03:13:39.380Z,1024.58
2018-09-27T03:14:39.389Z,1024.58
2018-09-27T03:15:39.365Z,1024.58
2018-09-27T03:16:39.355Z,1024.58
2018-09-27T03:17:39.356Z,1024.59
2018-09-27T03:18:39.352Z,1024.59
2018-09-27T03:19:39.324Z,1024.58
2018-09-27T03:20:39.323Z,1024.56
2018-09-27T03:21:39.289Z,1024.57
2018-09-27T03:22:39.324Z,1024.55
2018-09-27T03:23:39.302Z,1024.53
2018-09-27T03:24:39.275Z,1024.56
2018-09-27T03:25:39.289Z,1024.50
2018-09-27T03:26:39.245Z,1024.51
2018-09-27T03:27:39.224Z,1024.49
2018-09-27T03:28:39.251Z,1024.48
2018-09-27T03:29:39.225Z,1024.48
2018-09-27T03:30:39.205Z,1024.51
2018-09-27T03:31:39.180Z,1024.48
2018-09-27T03:32:39.182Z,1024.54
2018-09-27T03:33:39.210Z,1024.52
2018-09-27T03:34:39.151Z,1024.51
2018-09-27T03:35:39.145Z,1024.48
2018-09-27T03:36:39.157Z,1024.49
2018-09-27T03:37:39.131Z,1024.49
2018-09-27T03:38:39.125Z,1024.47
2018-09-27T03:39:39.175Z,1024.52
2018-09-27T03:40:39.157Z,1024.51
2018-09-27T03:41:39.076Z,1024.52
2018-09-27T03:42:39.122Z,1024.51
2018-09-27T03:43:39.070Z,1024.47
2018-09-27T03:44:39.069Z,1024.46
2018-09-27T03:45:39.032Z,1024.47
2018-09-27T03:46:39.016Z,1024.44
2018-09-27T03:47:39.009Z,1024.46
2018-09-27T03:48:39.030Z,1024.40
2018-09-27T03:49:38.996Z,1024.41
2018-09-27T03:50:39.012Z,1024.40
2018-09-27T03:51:38.998Z,1024.42
2018-09-27T03:52:38.957Z,1024.40
2018-09-27T03:53:38.961Z,1024.39
2018-09-27T03:54:38.929Z,1024.37
2018-09-27T03:55:38.944Z,1024.37
2018-09-27T03:56:38.931Z,1024.38
2018-09-27T03:57:38.905Z,1024.38
2018-09-27T03:58:38.892Z,1024.39
2018-09-27T03:59:38.925Z,1024.37
2018-09-27T04:00:38.901Z,1024.36
2018-09-27T04:01:38.860Z,1024.37
2018-09-27T04:02:38.876Z,1024.32
2018-09-27T04:03:38.858Z,1024.37
2018-09-27T04:04:38.836Z,1024.32
2018-09-27T04:05:38.813Z,1024.35
2018-09-27T04:06:38.833Z,1024.34
2018-09-27T04:07:38.804Z,1024.31
2018-09-27T04:08:38.803Z,1024.28
2018-09-27T04:09:38.767Z,1024.27
2018-09-27T04:10:38.762Z,1024.23
2018-09-27T04:11:38.809Z,1024.23
2018-09-27T04:12:38.777Z,1024.24
2018-09-27T04:13:38.780Z,1024.25
2018-09-27T04:14:38.723Z,1024.22
2018-09-27T04:15:38.713Z,1024.24
2018-09-27T04:16:38.741Z,1024.24
2018-09-27T04:17:38.712Z,1024.24
2018-09-27T04:18:38.674Z,1024.26
2018-09-27T04:19:38.662Z,1024.27
2018-09-27T04:20:38.646Z,1024.23
2018-09-27T04:21:38.704Z,1024.23
2018-09-27T04:22:38.645Z,1024.23
2018-09-27T04:23:38.635Z,1024.27
2018-09-27T04:24:38.605Z,1024.24
2018-09-27T04:25:38.610Z,1024.28
2018-09-27T04:26:38.581Z,1024.24
2018-09-27T04:27:38.740Z,1024.25
2018-09-27T04:28:38.566Z,1024.25
2018-09-27T04:29:38.551Z,1024.26
2018-09-27T04:30:38.584Z,1024.28
2018-09-27T04:31:38.527Z,1024.24
2018-09-27T04:32:38.543Z,1024.22
2018-09-27T04:33:38.560Z,1024.18
2018-09-27T04:34:38.502Z,1024.17
2018-09-27T04:35:38.533Z,1024.19
2018-09-27T04:36:38.482Z,1024.18
2018-09-27T04:37:38.499Z,1024.18
2018-09-27T04:38:38.451Z,1024.18
2018-09-27T04:39:38.444Z,1024.21
2018-09-27T04:40:38.433Z,1024.19
2018-09-27T04:41:38.422Z,1024.17
2018-09-27T04:42:38.445Z,1024.20
2018-09-27T04:43:38.399Z,1024.17
2018-09-27T04:44:38.420Z,1024.20
2018-09-27T04:45:38.387Z,1024.19
2018-09-27T04:46:38.415Z,1024.18
2018-09-27T04:47:38.353Z,1024.14
2018-09-27T04:48:38.376Z,1024.15
2018-09-27T04:49:38.334Z,1024.13
2018-09-27T04:50:38.330Z,1024.15
2018-09-27T04:51:38.382Z,1024.17
2018-09-27T04:52:38.301Z,1024.17
2018-09-27T04:53:38.603Z,1024.15
2018-09-27T04:54:38.404Z,1024.11
2018-09-27T04:55:38.330Z,1024.16
2018-09-27T04:56:38.255Z,1024.16
2018-09-27T04:57:38.265Z,1024.17
2018-09-27T04:58:38.316Z,1024.19
2018-09-27T04:59:38.259Z,1024.17
2018-09-27T05:00:38.237Z,1024.20
2018-09-27T05:01:38.213Z,1024.18
2018-09-27T05:02:38.300Z,1024.17
2018-09-27T05:03:38.412Z,1024.16
2018-09-27T05:04:38.212Z,1024.17
2018-09-27T05:05:38.235Z,1024.13
2018-09-27T05:06:38.271Z,1024.16
2018-09-27T05:07:38.307Z,1024.10
2018-09-27T05:08:39.273Z,1024.12
2018-09-27T05:09:38.261Z,1024.14
2018-09-27T05:10:38.164Z,1024.10
2018-09-27T05:11:38.153Z,1024.12
2018-09-27T05:12:38.209Z,1024.12
2018-09-27T05:13:38.095Z,1024.11
2018-09-27T05:14:38.243Z,1024.09
2018-09-27T05:15:40.301Z,1024.11
2018-09-27T05:16:38.043Z,1024.05
2018-09-27T05:17:38.258Z,1024.10
2018-09-27T05:18:38.092Z,1024.04
2018-09-27T05:19:38.455Z,1024.10
2018-09-27T05:20:38.144Z,1024.09
2018-09-27T05:21:38.155Z,1024.06
2018-09-27T05:22:38.666Z,1024.00
2018-09-27T05:23:38.100Z,1024.03
2018-09-27T05:24:38.559Z,1023.95
2018-09-27T05:25:38.097Z,1023.95
2018-09-27T05:26:37.932Z,1024.00
2018-09-27T05:27:37.947Z,1024.00
2018-09-27T05:28:37.912Z,1023.97
2018-09-27T05:29:37.942Z,1023.99
2018-09-27T05:30:37.980Z,1023.97
2018-09-27T05:31:37.899Z,1023.96
2018-09-27T05:32:38.612Z,1023.97
2018-09-27T05:33:38.132Z,1023.92
2018-09-27T05:34:37.881Z,1023.95
2018-09-27T05:35:38.017Z,1023.92
2018-09-27T05:36:38.460Z,1023.92
2018-09-27T05:37:39.354Z,1023.91
2018-09-27T05:38:37.951Z,1023.93
2018-09-27T05:39:37.826Z,1023.91
2018-09-27T05:40:37.849Z,1023.90
2018-09-27T05:41:37.935Z,1023.90
2018-09-27T05:42:37.872Z,1023.92
2018-09-27T05:43:37.784Z,1023.95
2018-09-27T05:44:37.755Z,1023.93
2018-09-27T05:45:37.791Z,1023.90
2018-09-27T05:46:38.505Z,1023.91
2018-09-27T05:47:39.678Z,1023.94
2018-09-27T05:48:38.700Z,1023.87
2018-09-27T05:49:37.814Z,1023.88
2018-09-27T05:50:37.767Z,1023.88
2018-09-27T05:51:37.727Z,1023.84
2018-09-27T05:52:37.756Z,1023.81
2018-09-27T05:53:37.637Z,1023.79
2018-09-27T05:54:37.744Z,1023.74
2018-09-27T05:55:37.720Z,1023.77
2018-09-27T05:56:37.635Z,1023.71
2018-09-27T05:57:37.672Z,1023.72
2018-09-27T05:58:37.628Z,1023.64
2018-09-27T05:59:37.580Z,1023.72
2018-09-27T06:00:37.561Z,1023.75
2018-09-27T06:01:37.577Z,1023.74
2018-09-27T06:02:37.561Z,1023.73
2018-09-27T06:03:37.575Z,1023.70
2018-09-27T06:04:37.524Z,1023.74
2018-09-27T06:05:37.509Z,1023.70
2018-09-27T06:06:37.538Z,1023.72
2018-09-27T06:07:37.487Z,1023.71
2018-09-27T06:08:37.491Z,1023.70
2018-09-27T06:09:37.646Z,1023.64
2018-09-27T06:10:37.457Z,1023.63
2018-09-27T06:11:37.599Z,1023.64
2018-09-27T06:12:37.433Z,1023.64
2018-09-27T06:13:37.650Z,1023.65
2018-09-27T06:14:37.413Z,1023.63
2018-09-27T06:15:37.509Z,1023.62
2018-09-27T06:16:37.425Z,1023.61
2018-09-27T06:17:37.376Z,1023.63
2018-09-27T06:18:37.366Z,1023.65
2018-09-27T06:19:37.418Z,1023.64
2018-09-27T06:20:37.354Z,1023.69
2018-09-27T06:21:37.424Z,1023.71
2018-09-27T06:22:37.346Z,1023.69
2018-09-27T06:23:37.320Z,1023.65
2018-09-27T06:24:37.300Z,1023.68
2018-09-27T06:25:37.319Z,1023.67
2018-09-27T06:26:37.293Z,1023.73
2018-09-27T06:27:37.311Z,1023.69
2018-09-27T06:28:37.266Z,1023.69
2018-09-27T06:29:37.279Z,1023.69
2018-09-27T06:30:37.236Z,1023.73
2018-09-27T06:31:37.280Z,1023.73
2018-09-27T06:32:37.244Z,1023.72
2018-09-27T06:33:37.306Z,1023.75
2018-09-27T06:34:37.197Z,1023.71
2018-09-27T06:35:37.194Z,1023.74
2018-09-27T06:36:37.176Z,1023.66
2018-09-27T06:37:37.197Z,1023.69
2018-09-27T06:38:37.218Z,1023.73
2018-09-27T06:39:37.164Z,1023.66
2018-09-27T06:40:37.134Z,1023.69
2018-09-27T06:41:37.146Z,1023.71
2018-09-27T06:42:37.109Z,1023.68
2018-09-27T06:43:37.170Z,1023.64
2018-09-27T06:44:37.107Z,1023.68
2018-09-27T06:45:37.085Z,1023.63
2018-09-27T06:46:37.082Z,1023.62
2018-09-27T06:47:37.096Z,1023.62
2018-09-27T06:48:37.115Z,1023.61
2018-09-27T06:49:37.047Z,1023.60
2018-09-27T06:50:37.025Z,1023.63
2018-09-27T06:51:37.187Z,1023.62
2018-09-27T06:52:37.002Z,1023.64
2018-09-27T06:53:37.008Z,1023.63
2018-09-27T06:54:36.997Z,1023.64
2018-09-27T06:55:37.106Z,1023.64
2018-09-27T06:56:37.073Z,1023.68
2018-09-27T06:57:36.947Z,1023.67
2018-09-27T06:58:36.944Z,1023.68
2018-09-27T06:59:36.955Z,1023.68
2018-09-27T07:00:36.912Z,1023.70
2018-09-27T07:01:36.950Z,1023.72
2018-09-27T07:02:36.962Z,1023.73
2018-09-27T07:03:36.878Z,1023.69
2018-09-27T07:04:36.890Z,1023.71
2018-09-27T07:05:36.857Z,1023.67
2018-09-27T07:06:36.851Z,1023.63
2018-09-27T07:07:36.845Z,1023.67
2018-09-27T07:08:36.860Z,1023.66
2018-09-27T07:09:36.847Z,1023.68
2018-09-27T07:10:36.813Z,1023.69
2018-09-27T07:11:36.793Z,1023.64
2018-09-27T07:12:36.828Z,1023.65
2018-09-27T07:13:36.917Z,1023.64
2018-09-27T07:14:36.797Z,1023.61
2018-09-27T07:15:36.875Z,1023.64
2018-09-27T07:16:36.738Z,1023.62
2018-09-27T07:17:36.737Z,1023.62
2018-09-27T07:18:36.784Z,1023.59
2018-09-27T07:19:36.709Z,1023.57
2018-09-27T07:20:36.735Z,1023.52
2018-09-27T07:21:36.715Z,1023.52
2018-09-27T07:22:36.684Z,1023.50
2018-09-27T07:23:36.687Z,1023.54
2018-09-27T07:24:36.670Z,1023.52
2018-09-27T07:25:36.684Z,1023.54
2018-09-27T07:26:36.723Z,1023.53
2018-09-27T07:27:36.875Z,1023.56
2018-09-27T07:28:36.616Z,1023.57
2018-09-27T07:29:36.601Z,1023.59
2018-09-27T07:30:36.621Z,1023.58
2018-09-27T07:31:36.640Z,1023.56
2018-09-27T07:32:36.640Z,1023.56
2018-09-27T07:33:36.573Z,1023.56
2018-09-27T07:34:36.559Z,1023.51
2018-09-27T07:35:36.588Z,1023.52
2018-09-27T07:36:36.544Z,1023.53
2018-09-27T07:37:36.512Z,1023.51
2018-09-27T07:38:36.578Z,1023.50
2018-09-27T07:39:36.496Z,1023.44
2018-09-27T07:40:36.507Z,1023.41
2018-09-27T07:41:36.499Z,1023.40
2018-09-27T07:42:36.513Z,1023.43
2018-09-27T07:43:36.447Z,1023.47
2018-09-27T07:44:36.497Z,1023.42
2018-09-27T07:45:36.452Z,1023.43
2018-09-27T07:46:36.448Z,1023.42
2018-09-27T07:47:36.408Z,1023.40
2018-09-27T07:48:36.419Z,1023.40
2018-09-27T07:49:36.412Z,1023.39
2018-09-27T07:50:36.391Z,1023.45
2018-09-27T07:51:36.381Z,1023.44
2018-09-27T07:52:36.364Z,1023.43
2018-09-27T07:53:36.371Z,1023.47
2018-09-27T07:54:36.591Z,1023.45
2018-09-27T07:55:36.327Z,1023.44
2018-09-27T07:56:36.401Z,1023.42
2018-09-27T07:57:36.296Z,1023.38
2018-09-27T07:58:36.330Z,1023.32
2018-09-27T07:59:36.276Z,1023.34
2018-09-27T08:00:36.284Z,1023.30
2018-09-27T08:01:36.306Z,1023.30
2018-09-27T08:02:36.331Z,1023.26
2018-09-27T08:03:36.227Z,1023.27
2018-09-27T08:04:36.220Z,1023.21
2018-09-27T08:05:36.205Z,1023.23
2018-09-27T08:06:36.199Z,1023.19
2018-09-27T08:07:36.235Z,1023.17
2018-09-27T08:08:36.209Z,1023.20
2018-09-27T08:09:36.164Z,1023.18
2018-09-27T08:10:36.155Z,1023.17
2018-09-27T08:11:36.286Z,1023.14
2018-09-27T08:12:36.166Z,1023.12
2018-09-27T08:13:36.154Z,1023.17
2018-09-27T08:14:36.118Z,1023.19
2018-09-27T08:15:36.136Z,1023.15
2018-09-27T08:16:36.103Z,1023.10
2018-09-27T08:17:36.143Z,1023.13
2018-09-27T08:18:36.088Z,1023.11
2018-09-27T08:19:36.058Z,1023.08
2018-09-27T08:20:36.174Z,1023.14
2018-09-27T08:21:36.037Z,1023.11
2018-09-27T08:22:36.055Z,1023.11
2018-09-27T08:23:36.082Z,1023.09
2018-09-27T08:24:36.011Z,1023.06
2018-09-27T08:25:35.996Z,1023.03
2018-09-27T08:26:35.999Z,1023.04
2018-09-27T08:27:35.975Z,1022.97
2018-09-27T08:28:35.986Z,1022.98
2018-09-27T08:29:35.975Z,1022.98
2018-09-27T08:30:35.968Z,1022.95
2018-09-27T08:31:35.929Z,1023.01
2018-09-27T08:32:35.953Z,1023.00
2018-09-27T08:33:35.955Z,1022.93
2018-09-27T08:34:35.904Z,1022.98
2018-09-27T08:35:35.880Z,1022.98
2018-09-27T08:36:35.879Z,1022.96
2018-09-27T08:37:35.876Z,1022.95
2018-09-27T08:38:35.917Z,1022.97
2018-09-27T08:39:35.875Z,1022.94
2018-09-27T08:40:35.825Z,1022.95
2018-09-27T08:41:35.827Z,1022.93
2018-09-27T08:42:35.812Z,1022.86
2018-09-27T08:43:35.792Z,1022.82
2018-09-27T08:44:35.881Z,1022.82
2018-09-27T08:45:35.872Z,1022.83
2018-09-27T08:46:35.767Z,1022.84
2018-09-27T08:47:35.785Z,1022.81
2018-09-27T08:48:35.747Z,1022.80
2018-09-27T08:49:35.772Z,1022.80
2018-09-27T08:50:35.727Z,1022.80
2018-09-27T08:51:35.723Z,1022.75
2018-09-27T08:52:35.698Z,1022.74
2018-09-27T08:53:35.689Z,1022.70
2018-09-27T08:54:35.734Z,1022.71
2018-09-27T08:55:35.767Z,1022.67
2018-09-27T08:56:35.684Z,1022.65
2018-09-27T08:57:35.656Z,1022.66
2018-09-27T08:58:35.642Z,1022.67
2018-09-27T08:59:35.659Z,1022.68
2018-09-27T09:00:35.659Z,1022.66
2018-09-27T09:01:35.691Z,1022.64
2018-09-27T09:02:35.606Z,1022.64
2018-09-27T09:03:35.672Z,1022.63
2018-09-27T09:04:35.646Z,1022.64
2018-09-27T09:05:35.553Z,1022.61
2018-09-27T09:06:35.635Z,1022.53
2018-09-27T09:07:35.585Z,1022.57
2018-09-27T09:08:35.537Z,1022.58
2018-09-27T09:09:35.652Z,1022.57
2018-09-27T09:10:35.501Z,1022.59
2018-09-27T09:11:35.495Z,1022.57
2018-09-27T09:12:35.476Z,1022.57
2018-09-27T09:13:35.508Z,1022.55
2018-09-27T09:14:35.490Z,1022.56
2018-09-27T09:15:35.530Z,1022.52
2018-09-27T09:16:35.439Z,1022.52
2018-09-27T09:17:35.422Z,1022.53
2018-09-27T09:18:35.459Z,1022.49
2018-09-27T09:19:35.438Z,1022.50
2018-09-27T09:20:35.421Z,1022.44
2018-09-27T09:21:35.404Z,1022.40
2018-09-27T09:22:35.368Z,1022.40
2018-09-27T09:23:35.417Z,1022.36
2018-09-27T09:24:35.410Z,1022.34
2018-09-27T09:25:35.399Z,1022.36
2018-09-27T09:26:35.329Z,1022.30
2018-09-27T09:27:35.330Z,1022.28
2018-09-27T09:28:35.388Z,1022.30
2018-09-27T09:29:35.447Z,1022.29
2018-09-27T09:30:35.321Z,1022.29
2018-09-27T09:31:35.274Z,1022.31
2018-09-27T09:32:35.288Z,1022.22
2018-09-27T09:33:35.318Z,1022.23
2018-09-27T09:34:35.238Z,1022.25
2018-09-27T09:35:35.327Z,1022.25
2018-09-27T09:36:35.265Z,1022.20
2018-09-27T09:37:35.212Z,1022.22
2018-09-27T09:38:35.224Z,1022.17
2018-09-27T09:39:35.180Z,1022.16
2018-09-27T09:40:35.977Z,1022.17
2018-09-27T09:41:35.215Z,1022.11
2018-09-27T09:42:35.242Z,1022.13
2018-09-27T09:43:35.152Z,1022.11
2018-09-27T09:44:35.128Z,1022.10
2018-09-27T09:45:35.135Z,1022.11
2018-09-27T09:46:35.129Z,1022.08
2018-09-27T09:47:35.104Z,1022.03
2018-09-27T09:48:35.109Z,1022.02
2018-09-27T09:49:35.082Z,1021.96
2018-09-27T09:50:35.079Z,1021.95
2018-09-27T09:51:35.099Z,1021.95
2018-09-27T09:52:35.045Z,1021.88
2018-09-27T09:53:35.025Z,1021.84
2018-09-27T09:54:35.016Z,1021.86
2018-09-27T09:55:35.007Z,1021.87
2018-09-27T09:56:35.016Z,1021.84
2018-09-27T09:57:35.014Z,1021.86
2018-09-27T09:58:34.981Z,1021.82
2018-09-27T09:59:34.964Z,1021.78
2018-09-27T10:00:34.952Z,1021.74
2018-09-27T10:01:34.941Z,1021.76
2018-09-27T10:02:35.015Z,1021.71
2018-09-27T10:03:34.917Z,1021.72
2018-09-27T10:04:34.906Z,1021.70
2018-09-27T10:05:34.899Z,1021.70
2018-09-27T10:06:34.891Z,1021.70
2018-09-27T10:07:34.912Z,1021.70
2018-09-27T10:08:34.864Z,1021.70
2018-09-27T10:09:34.851Z,1021.68
2018-09-27T10:10:34.844Z,1021.64
2018-09-27T10:11:34.866Z,1021.68
2018-09-27T10:12:34.843Z,1021.69
2018-09-27T10:13:34.811Z,1021.67
2018-09-27T10:14:34.817Z,1021.70
2018-09-27T10:15:34.788Z,1021.71
2018-09-27T10:16:34.781Z,1021.66
2018-09-27T10:17:34.817Z,1021.60
2018-09-27T10:18:34.755Z,1021.62
2018-09-27T10:19:34.742Z,1021.63
2018-09-27T10:20:34.785Z,1021.63
2018-09-27T10:21:34.771Z,1021.62
2018-09-27T10:22:34.753Z,1021.63
2018-09-27T10:23:34.699Z,1021.62
2018-09-27T10:24:34.696Z,1021.61
2018-09-27T10:25:34.681Z,1021.65
2018-09-27T10:26:34.667Z,1021.64
2018-09-27T10:27:34.791Z,1021.59
2018-09-27T10:28:34.646Z,1021.60
2018-09-27T10:29:34.633Z,1021.57
2018-09-27T10:30:34.636Z,1021.58
2018-09-27T10:31:34.613Z,1021.53
2018-09-27T10:32:34.600Z,1021.49
2018-09-27T10:33:34.628Z,1021.49
2018-09-27T10:34:34.598Z,1021.45
2018-09-27T10:35:34.590Z,1021.48
2018-09-27T10:36:34.558Z,1021.43
2018-09-27T10:37:34.571Z,1021.43
2018-09-27T10:38:34.557Z,1021.40
2018-09-27T10:39:34.602Z,1021.36
2018-09-27T10:40:34.514Z,1021.32
2018-09-27T10:41:34.510Z,1021.32
2018-09-27T10:42:34.515Z,1021.30
2018-09-27T10:43:34.503Z,1021.32
2018-09-27T10:44:34.473Z,1021.27
2018-09-27T10:45:34.472Z,1021.27
2018-09-27T10:46:34.454Z,1021.29
2018-09-27T10:47:34.439Z,1021.28
2018-09-27T10:48:34.463Z,1021.28
2018-09-27T10:49:34.421Z,1021.28
2018-09-27T10:50:34.406Z,1021.29
2018-09-27T10:51:34.455Z,1021.26
2018-09-27T10:52:34.386Z,1021.24
2018-09-27T10:53:34.377Z,1021.16
2018-09-27T10:54:34.408Z,1021.18
2018-09-27T10:55:34.424Z,1021.17
2018-09-27T10:56:34.338Z,1021.15
2018-09-27T10:57:34.401Z,1021.15
2018-09-27T10:58:34.315Z,1021.12
2018-09-27T10:59:34.386Z,1021.10
2018-09-27T11:00:34.312Z,1021.12
2018-09-27T11:01:34.293Z,1021.10
2018-09-27T11:02:34.396Z,1021.12
2018-09-27T11:03:34.270Z,1021.12
2018-09-27T11:04:34.293Z,1021.04
2018-09-27T11:05:34.366Z,1021.06
2018-09-27T11:06:34.258Z,1021.05
2018-09-27T11:07:34.280Z,1021.00
2018-09-27T11:08:34.242Z,1020.99
2018-09-27T11:09:34.274Z,1020.94
2018-09-27T11:10:34.190Z,1020.97
2018-09-27T11:11:34.240Z,1020.94
2018-09-27T11:12:34.267Z,1020.94
2018-09-27T11:13:34.201Z,1020.90
2018-09-27T11:14:34.172Z,1020.89
2018-09-27T11:15:34.140Z,1020.88
2018-09-27T11:16:34.200Z,1020.93
2018-09-27T11:17:34.160Z,1020.88
2018-09-27T11:18:34.197Z,1020.90
2018-09-27T11:19:34.136Z,1020.89
2018-09-27T11:20:34.085Z,1020.88
2018-09-27T11:21:34.224Z,1020.81
2018-09-27T11:22:34.213Z,1020.76
2018-09-27T11:23:34.050Z,1020.74
2018-09-27T11:24:34.087Z,1020.69
2018-09-27T11:25:34.050Z,1020.64
2018-09-27T11:26:34.120Z,1020.68
2018-09-27T11:27:34.212Z,1020.60
2018-09-27T11:28:34.012Z,1020.58
2018-09-27T11:29:33.984Z,1020.56
2018-09-27T11:30:33.999Z,1020.60
2018-09-27T11:31:33.988Z,1020.59
2018-09-27T11:32:33.967Z,1020.54
2018-09-27T11:33:33.943Z,1020.53
2018-09-27T11:34:34.024Z,1020.51
2018-09-27T11:35:33.947Z,1020.46
2018-09-27T11:36:33.933Z,1020.47
2018-09-27T11:37:33.900Z,1020.40
2018-09-27T11:38:33.927Z,1020.41
2018-09-27T11:39:33.936Z,1020.39
2018-09-27T11:40:33.934Z,1020.36
2018-09-27T11:41:33.854Z,1020.33
2018-09-27T11:42:34.050Z,1020.27
2018-09-27T11:43:33.861Z,1020.26
2018-09-27T11:44:33.826Z,1020.20
2018-09-27T11:45:33.816Z,1020.14
2018-09-27T11:46:33.858Z,1020.09
2018-09-27T11:47:33.835Z,1020.06
2018-09-27T11:48:33.776Z,1020.06
2018-09-27T11:49:33.927Z,1020.08
2018-09-27T11:50:33.765Z,1020.04
2018-09-27T11:51:33.808Z,1020.02
2018-09-27T11:52:33.757Z,1019.98
2018-09-27T11:53:33.729Z,1019.98
2018-09-27T11:54:33.710Z,1019.98
2018-09-27T11:55:33.713Z,1019.98
2018-09-27T11:56:33.758Z,1019.91
2018-09-27T11:57:33.745Z,1019.89
2018-09-27T11:58:33.681Z,1019.88
2018-09-27T11:59:33.660Z,1019.83
2018-09-27T12:00:33.740Z,1019.81
2018-09-27T12:01:33.701Z,1019.78
2018-09-27T12:02:33.659Z,1019.78
2018-09-27T12:03:33.610Z,1019.73
2018-09-27T12:04:33.771Z,1019.71
2018-09-27T12:05:33.596Z,1019.73